Nearby METAR Reports

 

KPTW - Pottstown, Pennsylvania, USA
Distance from station: NE 6mi, 10km
Updated: 11/21/2018 7:54am
Clear
Clear
 Wind from varies
Wind: varies 5 mph , 7 km/h
Temperature: 32°F , 0°C
Wind Chill: 27°F , -3°C
Dew Point: 25°F , -4°C
Humidity: 75%
Barometer: 30.12 inHg , 1020 hPa
Clouds: Clear
Visibility: 8 miles , 13 km
2018/11/21 12:54 KPTW 211254Z AUTO VRB04KT 8SM CLR 00/M04 A3012 RMK AO2 SLP200 T00001044
KMQS - Coatesville, Pennsylvania, USA
Distance from station: SW 18mi, 29km
Updated: 11/21/2018 8:15am
Clear
Clear
 Wind from calm
Wind: Calm
Temperature: 32°F , 0°C
Dew Point: 27°F , -3°C
Humidity: 80%
Barometer: 30.12 inHg , 1020 hPa
Clouds: Clear
Visibility: 10 miles , 16 km
2018/11/21 13:15 KMQS 211315Z AUTO 00000KT 10SM CLR 00/M03 A3012 RMK AO2
 
KLOM - Philly Wings F, Pennsylvania, USA
Distance from station: E 19mi, 31km
Updated: 11/21/2018 8:15am
Clear
Clear
 Wind from WSW
Wind: WSW 3 mph , 6 km/h
Temperature: 34°F , 1°C
Dew Point: 28°F , -2°C
Humidity: 81%
Barometer: 30.13 inHg , 1020.3 hPa
Clouds: Clear
Visibility: 10 miles , 16 km
2018/11/21 13:15 KLOM 211315Z AUTO 24003KT 10SM CLR 01/M02 A3013 RMK AO1
KRDG - Reading, Pennsylvania, USA
Distance from station: NW 22mi, 36km
Updated: 11/21/2018 7:54am
Clear
Clear
 Wind from SSW
Wind: SSW 3 mph , 6 km/h
Temperature: 32°F , 0°C
Dew Point: 27°F , -3°C
Humidity: 80%
Barometer: 30.09 inHg , 1019 hPa
Clouds: Clear
Visibility: 10 miles , 16 km
2018/11/21 12:54 KRDG 211254Z 20003KT 10SM CLR 00/M03 A3009 RMK AO2 SLP197 T00001033
 
KUKT - Quakertown Arp, Pennsylvania, USA
Distance from station: NE 22mi, 36km
Updated: 11/21/2018 8:15am
Clear
Clear
 Wind from SSW
Wind: SSW 6 mph , 9 km/h
Temperature: 34°F , 1°C
Wind Chill: 29°F , -2°C
Dew Point: 25°F , -4°C
Humidity: 70%
Barometer: 30.09 inHg , 1019 hPa
Clouds: Clear
Visibility: 10 miles , 16 km
2018/11/21 13:15 KUKT 211315Z AUTO 21005KT 10SM CLR 01/M04 A3009 RMK A01
KXLL - Allentown Queen, Pennsylvania, USA
Distance from station: NNE 28mi, 46km
Updated: 11/21/2018 8:15am
Clear
Clear
 Wind from SSW
Wind: SSW 8 mph , 13 km/h
Temperature: 34°F , 1°C
Wind Chill: 27°F , -3°C
Dew Point: 27°F , -3°C
Humidity: 75%
Barometer: 30.09 inHg , 1019 hPa
Clouds: Clear
Visibility: 10 miles , 16 km
2018/11/21 13:15 KXLL 211315Z AUTO 21007KT 10SM CLR 01/M03 A3009 RMK AO2
 
KDYL - Doylestown, Pennsylvania, USA
Distance from station: ENE 29mi, 47km
Updated: 11/21/2018 7:54am
Clear
Clear
 Wind from SSW
Wind: SSW 3 mph , 6 km/h
Temperature: 30°F , -1°C
Dew Point: 21°F , -6°C
Humidity: 69%
Barometer: 30.09 inHg , 1019 hPa
Clouds: Clear
Visibility: 10 miles , 16 km
2018/11/21 12:54 KDYL 211254Z AUTO 20003KT 10SM CLR M01/M06 A3009 RMK AO2 SLP196 T10111056
KPHL - Philadelphia, Pennsylvania, USA
Distance from station: SE 30mi, 48km
Updated: 11/21/2018 7:54am
Few Clouds
Few Clouds
 Wind from SW
Wind: SW 9 mph , 15 km/h
Temperature: 36°F , 2°C
Wind Chill: 29°F , -2°C
Dew Point: 27°F , -3°C
Humidity: 70%
Barometer: 30.14 inHg , 1020.7 hPa
Clouds: Few Clouds
Visibility: 10 miles , 16 km
Cloud details: Few Clouds 10000 ft
2018/11/21 12:54 KPHL 211254Z 23008KT 10SM FEW100 02/M03 A3014 RMK AO2 SLP206 T00171033
 
KPNE - Philadelphia/Ne, Pennsylvania, USA
Distance from station: E 33mi, 53km
Updated: 11/21/2018 7:54am
Clear
Clear
 Wind from WSW
Wind: WSW 6 mph , 9 km/h
Temperature: 36°F , 2°C
Wind Chill: 31°F , -1°C
Dew Point: 27°F , -3°C
Humidity: 70%
Barometer: 30.14 inHg , 1020.7 hPa
Clouds: Clear
Visibility: 10 miles , 16 km
2018/11/21 12:54 KPNE 211254Z 25005KT 10SM CLR 02/M03 A3014 RMK AO2 SLP205 T00221033
KABE - Allentown, Pennsylvania, USA
Distance from station: NNE 34mi, 55km
Updated: 11/21/2018 7:51am
Clear
Clear
 Wind from SW
Wind: SW 9 mph , 15 km/h
Temperature: 34°F , 1°C
Wind Chill: 27°F , -3°C
Dew Point: 23°F , -5°C
Humidity: 65%
Barometer: 30.07 inHg , 1018.3 hPa
Clouds: Clear
Visibility: 10 miles , 16 km
2018/11/21 12:51 KABE 211251Z 23008KT 10SM CLR 01/M05 A3007 RMK AO2 SLP187 T00061050
 
KILG - Wilmington, Delaware, USA
Distance from station: S 35mi, 56km
Updated: 11/21/2018 7:51am
Clear
Clear
 Wind from WSW
Wind: WSW 8 mph , 13 km/h
Temperature: 36°F , 2°C
Wind Chill: 30°F , -1°C
Dew Point: 27°F , -3°C
Humidity: 70%
Barometer: 30.15 inHg , 1021 hPa
Clouds: Clear
Visibility: 10 miles , 16 km
2018/11/21 12:51 KILG 211251Z 25007KT 10SM CLR 02/M03 A3015 RMK AO2 SLP210 T00171033 $
KLNS - Lancaster, Pennsylvania, USA
Distance from station: W 36mi, 57km
Updated: 11/21/2018 7:53am
Clear
Clear
 Wind from SW
Wind: SW 7 mph , 11 km/h
Temperature: 36°F , 2°C
Wind Chill: 30°F , -1°C
Dew Point: 25°F , -4°C
Humidity: 65%
Barometer: 30.11 inHg , 1019.6 hPa
Clouds: Clear
Visibility: 10 miles , 16 km
2018/11/21 12:53 KLNS 211253Z 22006KT 10SM CLR 02/M04 A3011 RMK AO2 SLP198 T00171039
 
KTTN - Trenton, New Jersey, USA
Distance from station: E 44mi, 70km
Updated: 11/21/2018 7:53am
Clear
Clear
 Wind from SW
Wind: SW 7 mph , 11 km/h
Temperature: 34°F , 1°C
Wind Chill: 28°F , -2°C
Dew Point: 25°F , -4°C
Humidity: 70%
Barometer: 30.10 inHg , 1019.3 hPa
Clouds: Clear
Visibility: 10 miles , 16 km
2018/11/21 12:53 KTTN 211253Z 22006KT 10SM CLR 01/M04 A3010 RMK AO2 SLP189 T00061039
KVAY - Mount Holly, New Jersey, USA
Distance from station: ESE 45mi, 73km
Updated: 11/21/2018 7:54am
Clear
Clear
 Wind from SSW
Wind: SSW 3 mph , 6 km/h
Temperature: 32°F , 0°C
Dew Point: 27°F , -3°C
Humidity: 80%
Barometer: 30.13 inHg , 1020.3 hPa
Clouds: Clear
Visibility: 10 miles , 16 km
2018/11/21 12:54 KVAY 211254Z AUTO 21003KT 10SM CLR 00/M03 A3013 RMK AO2 SLP205 T00001033 $
 
KMUI - Muir Aaf/Indiant, Pennsylvania, USA
Distance from station: WNW 52mi, 84km
Updated: 11/21/2018 7:56am
Overcast
Overcast
 Wind from SW
Wind: SW 3 mph , 6 km/h
Temperature: 32°F , 0°C
Dew Point: 25°F , -4°C
Humidity: 75%
Barometer: 30.09 inHg , 1019 hPa
Clouds: Overcast
Visibility: 10 miles , 16 km
Cloud details: Overcast 11000 ft
2018/11/21 12:56 KMUI 211256Z AUTO 22003KT 10SM OVC110 00/M04 A3009 RMK AO2 SLP197 T10041041 $
KAPG - Aberdeen/Phillip, Maryland, USA
Distance from station: SSW 56mi, 91km
Updated: 11/21/2018 7:53am
Clear
Clear
 Wind from calm
Wind: Calm
Temperature: 28°F , -2°C
Dew Point: 27°F , -3°C
Humidity: 93%
Barometer: 30.16 inHg , 1021.3 hPa
Clouds: Clear
Visibility: 9 miles , 14 km
2018/11/21 12:53 KAPG 211253Z 00000KT 9SM CLR M02/M03 A3016 RMK SLP217
 
KWRI - Wrightst/Mcguire, New Jersey, USA
Distance from station: E 56mi, 91km
Updated: 11/21/2018 7:56am
Clear
Clear
 Wind from SW
Wind: SW 5 mph , 7 km/h
Temperature: 32°F , 0°C
Wind Chill: 27°F , -3°C
Dew Point: 27°F , -3°C
Humidity: 80%
Barometer: 30.10 inHg , 1019.3 hPa
Clouds: Clear
Visibility: 10 miles , 16 km
2018/11/21 12:56 KWRI 211256Z AUTO 23004KT 10SM CLR 00/M03 A3010 RMK AO2 SLP194 T00001030 RVRNO VISNO RWY06 $
KSMQ - Somerville, New Jersey, USA
Distance from station: ENE 59mi, 96km
Updated: 11/21/2018 7:53am
Clear
Clear
 
Temperature: 32°F , 0°C
Dew Point: 23°F , -5°C
Humidity: 69%
Barometer: 30.08 inHg , 1018.6 hPa
Clouds: Clear
Visibility: 10 miles , 16 km
2018/11/21 12:53 KSMQ 211253Z AUTO 10SM CLR 00/M05 A3008 RMK AO2 SLP187 T00001050
 
KMDT - Middletown, Pennsylvania, USA
Distance from station: W 60mi, 97km
Updated: 11/21/2018 7:56am
Mostly Cloudy
Mostly Cloudy
 Wind from SSW
Wind: SSW 14 mph , 22 km/h
Temperature: 36°F , 2°C
Wind Chill: 27°F , -3°C
Dew Point: 27°F , -3°C
Humidity: 70%
Barometer: 30.10 inHg , 1019.3 hPa
Clouds: Mostly Cloudy
Visibility: 10 miles , 16 km
Cloud details: Partly Cloudy 4000 ft
Mostly Cloudy 12000 ft
2018/11/21 12:56 KMDT 211256Z 21012KT 10SM SCT040 BKN120 02/M03 A3010 RMK AO2 SLP195 T00221033
KMIV - Millville, New Jersey, USA
Distance from station: SSE 63mi, 101km
Updated: 11/21/2018 7:54am
Clear
Clear
 Wind from W
Wind: W 6 mph , 9 km/h
Temperature: 34°F , 1°C
Wind Chill: 29°F , -2°C
Dew Point: 28°F , -2°C
Humidity: 81%
Barometer: 30.16 inHg , 1021.3 hPa
Clouds: Clear
Visibility: 10 miles , 16 km
2018/11/21 12:54 KMIV 211254Z AUTO 27005KT 10SM CLR 01/M02 A3016 RMK AO2 SLP212 T00061022